Time;durP1;ratioP1;P1;durP2;ratioP2;P2;SDS_P1;SDS_P2;PMS_P1;PMS_P2;Temp;Humidity;BMP_temperature;BMP_pressure;BME280_temperature;BME280_humidity;BME280_pressure;Samples;Min_cycle;Max_cycle;Signal;HPM_P1;HPM_P2
2023/09/16 00:01:53;;;;;;;7.22;6.53;;;;;;;19.74;79.12;95525.31;5048421;28;20253;-84
2023/09/16 00:04:22;;;;;;;6.50;6.00;;;;;;;19.73;78.85;95513.28;5053010;28;20212;-83
2023/09/16 00:06:50;;;;;;;6.68;6.13;;;;;;;19.66;79.28;95514.22;5048076;28;20210;-83
2023/09/16 00:09:16;;;;;;;6.45;5.93;;;;;;;19.69;79.25;95520.78;5021074;28;20298;-82
2023/09/16 00:11:43;;;;;;;6.10;5.53;;;;;;;19.74;78.78;95513.03;5012762;28;20209;-83
2023/09/16 00:14:09;;;;;;;6.68;6.18;;;;;;;19.71;78.79;95515.34;5013378;28;20195;-83
2023/09/16 00:16:35;;;;;;;6.68;6.18;;;;;;;19.65;79.61;95527.50;5012280;28;20205;-83
2023/09/16 00:19:02;;;;;;;6.10;5.60;;;;;;;19.64;79.46;95529.31;5032526;28;20609;-83
2023/09/16 00:21:30;;;;;;;6.82;6.18;;;;;;;19.53;80.26;95539.84;5052448;28;20850;-83
2023/09/16 00:23:57;;;;;;;7.00;6.05;;;;;;;19.37;81.11;95559.63;5052456;28;20201;-82
2023/09/16 00:26:23;;;;;;;7.40;6.70;;;;;;;19.31;81.91;95574.38;5036279;28;20204;-82
2023/09/16 00:28:50;;;;;;;7.35;6.75;;;;;;;19.35;80.83;95553.81;5033716;28;20237;-83
2023/09/16 00:31:16;;;;;;;7.75;7.05;;;;;;;19.28;81.30;95567.00;5032502;28;20526;-84
2023/09/16 00:33:44;;;;;;;6.70;6.20;;;;;;;19.37;81.12;95566.66;5032240;28;20260;-83
2023/09/16 00:36:10;;;;;;;8.35;7.50;;;;;;;19.26;81.77;95576.88;5048822;28;20193;-83
2023/09/16 00:38:38;;;;;;;7.28;6.57;;;;;;;19.08;82.93;95582.25;5039948;28;20218;-83
2023/09/16 00:41:04;;;;;;;7.85;7.15;;;;;;;19.01;83.18;95584.22;5031934;28;20853;-83
2023/09/16 00:43:31;;;;;;;7.57;6.82;;;;;;;18.97;83.51;95593.50;5031776;28;20209;-82
2023/09/16 00:45:58;;;;;;;7.95;7.30;;;;;;;18.86;84.07;95592.47;5020220;28;20230;-83
2023/09/16 00:48:24;;;;;;;7.47;6.88;;;;;;;18.93;83.90;95601.00;5032283;28;20738;-83
2023/09/16 00:50:51;;;;;;;6.53;5.97;;;;;;;19.06;83.50;95594.72;5036432;28;20201;-83
2023/09/16 00:53:18;;;;;;;7.10;6.50;;;;;;;19.18;82.45;95579.06;5051516;28;20216;-83
2023/09/16 00:55:48;;;;;;;6.70;6.20;;;;;;;19.25;81.78;95562.25;5052927;28;20240;-83
2023/09/16 00:58:17;;;;;;;7.35;6.82;;;;;;;19.36;80.78;95554.63;5052079;28;20221;-82
2023/09/16 01:00:45;;;;;;;6.97;6.38;;;;;;;19.36;80.38;95533.72;5051716;28;20226;-82
2023/09/16 01:03:12;;;;;;;7.38;6.78;;;;;;;19.34;80.62;95536.56;5045926;28;20194;-83
2023/09/16 01:05:39;;;;;;;7.45;6.85;;;;;;;19.25;80.66;95543.16;5023862;28;20210;-83
2023/09/16 01:08:07;;;;;;;7.07;6.57;;;;;;;19.20;81.02;95558.75;5045915;28;20229;-83
2023/09/16 01:10:33;;;;;;;7.55;6.93;;;;;;;19.20;80.74;95549.09;5052298;28;20296;-83
2023/09/16 01:13:01;;;;;;;8.07;7.47;;;;;;;19.25;80.72;95548.41;5051904;28;20205;-83
2023/09/16 01:15:33;;;;;;;7.60;6.88;;;;;;;19.21;80.99;95548.09;5051541;28;20197;-85
2023/09/16 01:18:06;;;;;;;7.75;6.97;;;;;;;19.17;80.69;95541.75;5051034;28;20251;-85
2023/09/16 01:20:33;;;;;;;8.48;7.70;;;;;;;19.01;81.27;95550.28;5051520;28;20252;-86
2023/09/16 01:23:00;;;;;;;8.80;7.90;;;;;;;18.89;82.30;95565.94;5047130;28;20201;-86
2023/09/16 01:25:29;;;;;;;8.48;7.68;;;;;;;18.71;83.68;95584.31;5042927;28;20197;-85
2023/09/16 01:27:56;;;;;;;8.90;8.00;;;;;;;18.63;84.63;95603.72;5031358;28;20233;-85
2023/09/16 01:30:23;;;;;;;8.10;7.30;;;;;;;18.62;84.89;95604.75;5031862;28;20195;-86
2023/09/16 01:32:54;;;;;;;7.35;6.80;;;;;;;18.60;84.96;95616.41;5031022;28;20394;-86
2023/09/16 01:35:24;;;;;;;7.95;7.22;;;;;;;18.63;84.62;95603.72;5031639;28;20205;-86
2023/09/16 01:37:53;;;;;;;8.48;7.30;;;;;;;18.62;84.63;95609.16;5031372;28;20578;-85
2023/09/16 01:40:23;;;;;;;8.18;7.47;;;;;;;18.65;84.29;95603.50;5044749;28;20220;-86
2023/09/16 01:42:52;;;;;;;7.88;7.18;;;;;;;18.55;84.81;95604.03;5027683;28;20233;-86
2023/09/16 01:45:19;;;;;;;8.02;7.32;;;;;;;18.57;84.65;95601.97;5031906;28;20229;-86
2023/09/16 01:47:45;;;;;;;8.38;7.63;;;;;;;18.50;85.43;95614.31;5031869;28;20206;-86
2023/09/16 01:50:12;;;;;;;8.40;7.68;;;;;;;18.53;85.39;95607.88;5031265;28;20845;-86
2023/09/16 01:52:38;;;;;;;8.25;7.50;;;;;;;18.48;85.44;95605.13;5031235;28;20209;-85
2023/09/16 01:55:05;;;;;;;8.82;8.02;;;;;;;18.57;84.91;95609.81;5033454;28;20197;-86
2023/09/16 01:57:32;;;;;;;7.88;7.28;;;;;;;18.55;86.02;95621.47;5049709;28;20209;-86
2023/09/16 02:00:00;;;;;;;8.35;7.60;;;;;;;18.53;85.71;95608.66;5040765;28;20253;-85
2023/09/16 02:02:26;;;;;;;8.02;7.32;;;;;;;18.54;85.44;95612.88;5022591;28;20244;-85
2023/09/16 02:04:52;;;;;;;8.20;7.50;;;;;;;18.53;85.86;95623.50;5030824;28;20206;-85
2023/09/16 02:07:19;;;;;;;8.30;7.60;;;;;;;18.61;85.21;95610.97;5031585;28;20236;-86
2023/09/16 02:09:45;;;;;;;8.68;7.95;;;;;;;18.60;85.51;95619.81;5018146;28;20230;-85
2023/09/16 02:12:12;;;;;;;7.60;6.90;;;;;;;18.63;85.07;95624.59;5035482;28;20581;-86
2023/09/16 02:14:39;;;;;;;8.70;7.90;;;;;;;18.62;84.40;95596.94;5050573;28;20205;-85
2023/09/16 02:17:08;;;;;;;8.80;8.10;;;;;;;18.44;85.65;95624.88;5050535;28;20605;-86
2023/09/16 02:19:34;;;;;;;8.52;7.82;;;;;;;18.22;87.58;95654.06;5051310;28;20255;-86
2023/09/16 02:22:01;;;;;;;8.02;7.22;;;;;;;18.21;88.13;95662.91;5051449;28;20694;-86
2023/09/16 02:24:27;;;;;;;8.30;7.60;;;;;;;18.24;88.32;95659.06;5050608;28;20202;-85
2023/09/16 02:26:54;;;;;;;8.95;8.10;;;;;;;18.24;88.27;95664.28;5030042;28;20210;-85
2023/09/16 02:29:20;;;;;;;8.05;7.40;;;;;;;18.37;87.88;95658.06;5050318;28;20226;-85
2023/09/16 02:31:46;;;;;;;7.90;7.20;;;;;;;18.49;86.89;95648.44;5050520;28;20205;-85
2023/09/16 02:34:14;;;;;;;8.02;7.32;;;;;;;18.59;85.68;95626.06;5049992;28;20205;-84
2023/09/16 02:36:40;;;;;;;7.45;6.85;;;;;;;18.68;85.10;95620.50;5030819;28;20246;-86
2023/09/16 02:39:07;;;;;;;8.60;7.70;;;;;;;18.72;84.65;95609.38;5030916;28;20641;-85
2023/09/16 02:41:33;;;;;;;8.30;7.50;;;;;;;18.79;84.02;95614.50;5030276;28;20244;-85
2023/09/16 02:44:00;;;;;;;9.13;8.32;;;;;;;18.72;84.16;95606.78;5036589;28;20205;-85
2023/09/16 02:46:26;;;;;;;8.88;8.18;;;;;;;18.63;84.82;95618.59;5050831;28;20209;-86
2023/09/16 02:48:52;;;;;;;8.52;7.72;;;;;;;18.65;84.72;95613.94;5050450;28;20225;-86
2023/09/16 02:51:20;;;;;;;8.77;7.97;;;;;;;18.55;85.40;95627.50;5050201;28;20580;-82
2023/09/16 02:53:47;;;;;;;8.55;7.82;;;;;;;18.54;85.62;95633.72;5050621;28;20204;-83
2023/09/16 02:56:13;;;;;;;8.15;7.45;;;;;;;18.63;85.05;95626.41;5040351;28;20194;-82
2023/09/16 02:58:39;;;;;;;8.50;7.80;;;;;;;18.63;84.38;95624.59;5022942;28;20225;-83
2023/09/16 03:01:09;;;;;;;8.65;7.95;;;;;;;18.71;84.23;95620.03;5045392;28;20225;-83
2023/09/16 03:03:36;;;;;;;8.88;8.07;;;;;;;18.66;83.80;95605.09;5050383;28;20678;-83
2023/09/16 03:06:02;;;;;;;8.00;7.30;;;;;;;18.63;83.73;95606.34;5050580;28;20228;-84
2023/09/16 03:08:30;;;;;;;7.65;6.95;;;;;;;18.66;83.36;95602.50;5049160;28;20233;-83
2023/09/16 03:11:00;;;;;;;7.18;6.63;;;;;;;18.53;83.80;95605.25;5034869;28;20603;-83
2023/09/16 03:13:26;;;;;;;8.25;7.63;;;;;;;18.24;85.53;95627.78;5034491;28;20223;-83
2023/09/16 03:16:12;;;;;;;8.00;7.22;;;;;;;18.18;86.39;95647.69;5037379;28;20198;-83
2023/09/16 03:18:39;;;;;;;8.25;7.45;;;;;;;18.27;86.22;95641.16;5053222;28;20225;-86
2023/09/16 03:21:07;;;;;;;8.40;7.70;;;;;;;18.35;85.89;95634.81;5054792;28;20229;-86
2023/09/16 03:23:35;;;;;;;8.27;7.57;;;;;;;18.38;85.67;95630.97;5054145;28;20292;-85
2023/09/16 03:26:01;;;;;;;8.80;8.10;;;;;;;18.33;85.86;95634.25;5040876;28;20197;-86
2023/09/16 03:28:27;;;;;;;8.93;8.15;;;;;;;18.27;86.00;95637.75;5034605;28;20222;-86
2023/09/16 03:30:54;;;;;;;9.35;7.57;;;;;;;18.29;86.07;95638.31;5031390;28;20214;-86
2023/09/16 03:33:20;;;;;;;8.93;8.13;;;;;;;18.18;86.84;95647.69;5045298;28;20208;-86
2023/09/16 03:35:47;;;;;;;9.48;8.57;;;;;;;18.11;87.50;95656.63;5044216;28;20198;-85
2023/09/16 03:38:15;;;;;;;8.70;7.90;;;;;;;18.15;87.36;95657.75;5034019;28;20590;-85
2023/09/16 03:40:43;;;;;;;8.68;7.97;;;;;;;18.26;86.85;95647.41;5034192;28;20204;-85
2023/09/16 03:43:09;;;;;;;8.95;8.07;;;;;;;18.30;86.29;95632.88;5033651;28;20668;-85
2023/09/16 03:45:35;;;;;;;9.55;8.68;;;;;;;18.29;86.13;95633.88;5034169;28;20216;-86
2023/09/16 03:48:02;;;;;;;8.73;7.93;;;;;;;18.34;85.74;95619.41;5035683;28;20197;-85
2023/09/16 03:50:29;;;;;;;8.98;8.20;;;;;;;18.27;85.92;95620.31;5053206;28;20251;-83
2023/09/16 03:52:55;;;;;;;8.80;8.00;;;;;;;18.26;85.87;95621.34;5036052;28;20214;-84
2023/09/16 03:55:22;;;;;;;8.25;7.43;;;;;;;18.27;85.94;95615.09;5028424;28;20489;-83
2023/09/16 03:57:50;;;;;;;8.30;7.60;;;;;;;18.18;86.45;95631.25;5035939;28;20202;-84
2023/09/16 04:00:16;;;;;;;8.57;7.78;;;;;;;18.22;86.09;95628.00;5035899;28;20224;-82
2023/09/16 04:02:42;;;;;;;8.77;7.97;;;;;;;18.24;85.74;95619.97;5033779;28;20226;-83
2023/09/16 04:05:09;;;;;;;7.20;6.60;;;;;;;18.29;84.81;95609.63;5044640;28;20566;-83
2023/09/16 04:07:36;;;;;;;6.97;6.43;;;;;;;18.37;84.37;95591.06;5053848;28;20209;-83
2023/09/16 04:10:03;;;;;;;7.22;6.50;;;;;;;18.28;84.04;95582.78;5038133;28;20218;-83
2023/09/16 04:12:29;;;;;;;7.85;6.60;;;;;;;18.30;84.04;95590.38;5033818;28;20202;-84
2023/09/16 04:14:57;;;;;;;6.82;6.22;;;;;;;18.31;83.14;95571.09;5033706;28;20210;-83
2023/09/16 04:17:24;;;;;;;7.20;6.57;;;;;;;18.28;82.36;95561.13;5032609;28;20635;-83
2023/09/16 04:19:50;;;;;;;7.00;6.30;;;;;;;18.27;82.41;95562.19;5031832;28;20229;-83
2023/09/16 04:22:17;;;;;;;7.25;6.65;;;;;;;18.10;83.03;95574.25;5052334;28;20236;-83
2023/09/16 04:24:43;;;;;;;7.20;6.45;;;;;;;18.15;83.04;95582.19;5049838;28;20216;-83
2023/09/16 04:27:09;;;;;;;7.10;6.50;;;;;;;18.11;82.94;95576.63;5030143;28;20657;-84
2023/09/16 04:29:36;;;;;;;7.93;6.90;;;;;;;18.07;83.00;95578.13;5012861;28;20226;-83
2023/09/16 04:32:04;;;;;;;7.82;7.13;;;;;;;18.07;82.55;95564.28;5013442;28;20203;-83
2023/09/16 04:34:32;;;;;;;7.88;7.28;;;;;;;18.06;82.48;95573.91;5013079;28;20206;-82
2023/09/16 04:36:59;;;;;;;8.00;7.30;;;;;;;18.05;82.77;95571.53;5038819;28;20217;-83
2023/09/16 04:39:26;;;;;;;7.75;7.10;;;;;;;17.99;82.94;95580.22;5052495;28;20308;-83
2023/09/16 04:41:53;;;;;;;8.25;7.55;;;;;;;18.03;82.98;95581.38;5052783;28;20228;-83
2023/09/16 04:44:20;;;;;;;8.75;8.05;;;;;;;17.98;82.97;95573.44;5052085;28;20224;-83
2023/09/16 04:46:46;;;;;;;8.02;7.43;;;;;;;17.91;83.71;95589.94;5052154;28;20344;-83
2023/09/16 04:49:14;;;;;;;8.35;7.55;;;;;;;17.80;83.90;95590.69;5032710;28;20773;-83
2023/09/16 04:51:41;;;;;;;7.50;6.90;;;;;;;17.70;84.54;95597.47;5029797;28;20256;-83
2023/09/16 04:54:08;;;;;;;7.50;6.90;;;;;;;17.69;85.12;95609.69;5047431;28;20209;-83
2023/09/16 04:56:35;;;;;;;8.85;8.05;;;;;;;17.63;85.44;95622.75;5053218;28;20278;-83
2023/09/16 04:59:02;;;;;;;8.13;7.45;;;;;;;17.64;85.38;95613.94;5053862;28;20228;-83
2023/09/16 05:01:30;;;;;;;9.70;7.75;;;;;;;17.57;85.56;95607.00;5053211;28;20225;-83
2023/09/16 05:03:56;;;;;;;8.75;7.95;;;;;;;17.48;86.38;95628.34;5053786;28;20197;-82
2023/09/16 05:06:24;;;;;;;8.50;7.70;;;;;;;17.39;87.47;95651.25;5053715;28;20220;-83
2023/09/16 05:08:53;;;;;;;8.02;7.32;;;;;;;17.47;87.39;95652.78;5048671;28;20690;-83
2023/09/16 05:11:19;;;;;;;8.55;7.88;;;;;;;17.54;86.81;95638.66;5052947;28;20201;-83
2023/09/16 05:13:46;;;;;;;8.65;7.93;;;;;;;17.61;86.42;95633.38;5053065;28;20201;-82
2023/09/16 05:16:12;;;;;;;9.27;7.93;;;;;;;17.66;86.29;95622.34;5052149;28;20198;-86
2023/09/16 05:18:41;;;;;;;9.77;8.80;;;;;;;17.69;85.51;95617.50;5051412;28;20225;-86
2023/09/16 05:21:08;;;;;;;11.48;9.88;;;;;;;17.70;85.27;95606.09;5051996;28;20201;-85
2023/09/16 05:23:37;;;;;;;10.60;9.65;;;;;;;17.75;85.47;95608.00;5046482;28;20214;-85
2023/09/16 05:26:05;;;;;;;9.80;8.70;;;;;;;17.79;84.83;95596.13;5032397;28;20264;-84
2023/09/16 05:28:31;;;;;;;8.95;8.15;;;;;;;17.79;84.88;95599.53;5051175;28;20217;-85
2023/09/16 05:30:58;;;;;;;8.63;7.80;;;;;;;17.84;84.99;95604.09;5051019;28;20197;-85
2023/09/16 05:33:25;;;;;;;8.93;7.47;;;;;;;17.87;84.74;95603.66;5039259;28;20225;-86
2023/09/16 05:35:51;;;;;;;8.30;7.57;;;;;;;17.84;85.36;95617.13;5031109;28;20691;-86
2023/09/16 05:38:18;;;;;;;9.07;8.27;;;;;;;17.83;85.35;95612.91;5031234;28;20710;-85
2023/09/16 05:40:46;;;;;;;8.98;8.18;;;;;;;17.91;84.74;95602.16;5032306;28;20205;-85
2023/09/16 05:43:12;;;;;;;8.25;7.47;;;;;;;18.04;84.26;95596.78;5046343;28;20240;-84
2023/09/16 05:45:38;;;;;;;8.65;7.75;;;;;;;18.10;83.67;95582.84;5034456;28;20209;-86
2023/09/16 05:48:05;;;;;;;9.23;8.52;;;;;;;18.13;83.63;95579.81;5023800;28;20638;-83
2023/09/16 05:50:32;;;;;;;8.43;7.72;;;;;;;18.10;84.03;95584.66;5032081;28;20851;-83
2023/09/16 05:52:58;;;;;;;8.57;7.70;;;;;;;18.10;83.85;95582.84;5030618;28;20209;-83
2023/09/16 05:55:25;;;;;;;8.02;7.38;;;;;;;18.12;83.85;95593.84;5031622;28;20209;-83
2023/09/16 05:57:53;;;;;;;8.18;7.47;;;;;;;18.19;83.36;95591.94;5040253;28;20198;-84
2023/09/16 06:00:19;;;;;;;7.80;7.20;;;;;;;18.19;83.11;95581.53;5050647;28;20639;-83
2023/09/16 06:02:46;;;;;;;7.75;7.05;;;;;;;18.23;83.01;95574.84;5050632;28;20224;-82
2023/09/16 06:05:12;;;;;;;7.57;6.88;;;;;;;18.27;82.90;95581.22;5051080;28;20213;-82
2023/09/16 06:07:41;;;;;;;7.40;6.80;;;;;;;18.35;82.50;95572.25;5050946;28;20209;-82
2023/09/16 06:10:08;;;;;;;7.85;7.25;;;;;;;18.38;82.84;95573.63;5034904;28;20272;-84
2023/09/16 06:12:35;;;;;;;9.43;6.90;;;;;;;18.38;83.06;95582.25;5030390;28;20201;-83
2023/09/16 06:15:03;;;;;;;7.50;6.80;;;;;;;18.42;83.41;95586.00;5048705;28;21143;-83
2023/09/16 06:17:29;;;;;;;7.50;6.78;;;;;;;18.46;83.25;95579.31;5050266;28;20209;-83
2023/09/16 06:19:56;;;;;;;7.47;6.88;;;;;;;18.49;83.45;95597.09;5045678;28;20589;-83
2023/09/16 06:22:23;;;;;;;7.60;6.85;;;;;;;18.69;82.61;95588.97;5031594;28;20737;-83
2023/09/16 06:24:51;;;;;;;7.38;6.68;;;;;;;18.88;81.95;95574.78;5031543;28;20198;-83
2023/09/16 06:27:17;;;;;;;7.68;6.97;;;;;;;19.07;81.29;95559.78;5031303;28;20624;-83
2023/09/16 06:29:46;;;;;;;8.13;7.32;;;;;;;19.17;80.94;95554.78;5036769;28;20229;-83
2023/09/16 06:32:14;;;;;;;7.30;6.70;;;;;;;19.32;80.07;95528.97;5049988;28;20261;-83
2023/09/16 06:34:40;;;;;;;7.50;6.90;;;;;;;19.47;79.48;95518.00;5030936;28;20199;-83
2023/09/16 06:37:07;;;;;;;7.93;7.32;;;;;;;19.62;79.33;95512.31;5030661;28;20210;-83
2023/09/16 06:39:33;;;;;;;7.38;6.78;;;;;;;19.68;79.00;95506.13;5030646;28;20595;-83
2023/09/16 06:42:00;;;;;;;8.25;7.55;;;;;;;19.70;79.30;95509.31;5027929;28;20280;-83
2023/09/16 06:44:27;;;;;;;8.80;8.07;;;;;;;19.75;79.33;95506.78;5018296;28;20194;-83
2023/09/16 06:46:53;;;;;;;8.98;8.07;;;;;;;19.86;79.46;95513.75;5046102;28;20205;-83
2023/09/16 06:49:21;;;;;;;8.80;8.10;;;;;;;20.02;79.00;95506.97;5054533;28;20236;-83
2023/09/16 06:51:47;;;;;;;9.27;7.72;;;;;;;19.98;79.82;95519.72;5054090;28;20201;-83
2023/09/16 06:54:14;;;;;;;8.75;8.05;;;;;;;20.21;79.57;95518.78;5053950;28;20228;-83
2023/09/16 06:56:40;;;;;;;8.32;7.63;;;;;;;20.41;79.17;95502.63;5054416;28;20204;-83
2023/09/16 06:59:07;;;;;;;7.40;6.80;;;;;;;20.62;77.74;95493.22;5054275;28;20576;-83
2023/09/16 07:01:34;;;;;;;6.90;6.30;;;;;;;20.82;76.76;95456.88;5051055;28;20197;-82
2023/09/16 07:04:00;;;;;;;5.40;5.00;;;;;;;20.71;77.23;95468.25;5054472;28;20221;-83
2023/09/16 07:06:28;;;;;;;5.25;4.85;;;;;;;20.80;77.65;95492.94;5054623;28;20217;-82
2023/09/16 07:08:55;;;;;;;5.32;4.93;;;;;;;21.02;76.84;95469.41;5048258;28;20225;-84
2023/09/16 07:11:21;;;;;;;5.43;4.90;;;;;;;21.15;76.37;95468.25;5034758;28;20213;-83
2023/09/16 07:13:48;;;;;;;5.80;5.40;;;;;;;21.28;75.20;95445.13;5033735;28;20202;-83
2023/09/16 07:16:14;;;;;;;6.03;5.57;;;;;;;21.41;73.95;95419.56;5034200;28;20198;-83
2023/09/16 07:18:41;;;;;;;6.80;6.30;;;;;;;21.60;73.06;95403.22;5043157;28;20219;-83
2023/09/16 07:21:07;;;;;;;7.80;5.90;;;;;;;21.78;72.22;95385.53;5054151;28;20201;-82
2023/09/16 07:23:35;;;;;;;7.55;6.95;;;;;;;21.90;70.77;95354.72;5053239;28;20221;-83
2023/09/16 07:26:02;;;;;;;7.00;6.40;;;;;;;22.03;71.02;95349.03;5040693;28;20202;-82
2023/09/16 07:28:29;;;;;;;6.38;5.82;;;;;;;22.21;70.73;95345.19;5034179;28;20719;-82
2023/09/16 07:30:56;;;;;;;6.57;6.00;;;;;;;22.37;70.96;95355.50;5034467;28;20198;-84
2023/09/16 07:33:23;;;;;;;6.45;5.95;;;;;;;22.55;70.27;95343.75;5032756;28;20198;-83
2023/09/16 07:35:51;;;;;;;6.10;5.60;;;;;;;22.77;69.42;95325.22;5052802;28;20217;-83
2023/09/16 07:38:17;;;;;;;6.32;5.82;;;;;;;22.84;68.73;95298.72;5031058;28;20223;-83
2023/09/16 07:40:45;;;;;;;22.38;20.45;;;;;;;23.00;68.17;95285.38;5031909;28;20226;-83
2023/09/16 07:43:12;;;;;;;7.90;7.28;;;;;;;23.16;67.40;95273.03;5022754;28;20222;-83
2023/09/16 07:45:39;;;;;;;8.35;7.65;;;;;;;23.27;67.16;95268.56;5014540;28;20203;-83
2023/09/16 07:48:07;;;;;;;7.00;6.50;;;;;;;23.29;67.93;95283.00;5015433;28;20214;-83
2023/09/16 07:50:33;;;;;;;7.93;7.32;;;;;;;23.44;67.11;95258.56;5031756;28;20197;-82
2023/09/16 07:53:00;;;;;;;15.02;13.63;;;;;;;23.56;66.37;95240.69;5054316;28;20610;-83
2023/09/16 07:55:26;;;;;;;8.88;7.97;;;;;;;23.80;65.53;95227.75;5053649;28;20678;-83
2023/09/16 07:57:54;;;;;;;10.40;9.60;;;;;;;23.88;65.24;95208.00;5053505;28;20212;-83
2023/09/16 08:00:21;;;;;;;6.95;6.28;;;;;;;23.98;65.56;95219.28;5053955;28;20212;-83
2023/09/16 08:02:48;;;;;;;6.43;5.93;;;;;;;24.10;64.79;95196.06;5052593;28;20240;-83
2023/09/16 08:05:15;;;;;;;6.55;5.95;;;;;;;24.22;65.25;95219.44;5052928;28;20214;-82
2023/09/16 08:07:41;;;;;;;6.72;6.22;;;;;;;24.33;64.38;95189.41;5049634;28;20202;-84
2023/09/16 08:10:08;;;;;;;6.75;6.20;;;;;;;24.53;63.29;95167.44;5036634;28;20219;-83
2023/09/16 08:12:34;;;;;;;6.63;6.03;;;;;;;24.78;62.55;95133.00;5033600;28;20202;-84
2023/09/16 08:15:04;;;;;;;7.32;6.72;;;;;;;24.95;62.70;95122.09;5033439;28;20232;-82
2023/09/16 08:17:31;;;;;;;6.93;6.43;;;;;;;25.19;61.80;95105.53;5031933;28;20309;-82
2023/09/16 08:19:57;;;;;;;15.98;14.57;;;;;;;25.44;61.62;95100.75;5033189;28;20234;-83
2023/09/16 08:22:24;;;;;;;8.65;7.85;;;;;;;25.58;59.79;95031.53;5035352;28;20212;-83
2023/09/16 08:24:50;;;;;;;7.40;6.80;;;;;;;25.59;60.18;95004.88;5030859;28;20198;-83
2023/09/16 08:27:19;;;;;;;7.90;7.20;;;;;;;25.54;59.74;95012.06;5031381;28;20782;-83
2023/09/16 08:29:45;;;;;;;7.50;6.85;;;;;;;25.65;59.34;94987.91;5031111;28;20222;-83
2023/09/16 08:32:13;;;;;;;7.18;6.57;;;;;;;25.79;59.19;94986.13;5031836;28;20210;-83
2023/09/16 08:34:39;;;;;;;10.95;9.82;;;;;;;26.06;58.97;94980.19;5023990;28;20571;-83
2023/09/16 08:37:06;;;;;;;10.63;9.80;;;;;;;26.12;58.65;94967.69;5031497;28;20230;-83
2023/09/16 08:39:32;;;;;;;7.45;6.70;;;;;;;26.33;58.09;94949.69;5042760;28;20606;-83
2023/09/16 08:42:04;;;;;;;7.40;6.80;;;;;;;26.38;57.98;94944.31;5050401;28;20713;-84
2023/09/16 08:44:37;;;;;;;8.02;7.43;;;;;;;26.57;57.45;94939.72;5031238;28;20970;-83
2023/09/16 08:47:07;;;;;;;6.68;6.18;;;;;;;26.73;57.96;94938.38;5031599;28;20256;-83
2023/09/16 08:49:43;;;;;;;6.68;6.18;;;;;;;26.87;57.00;94916.44;5031092;28;20597;-83
2023/09/16 08:52:10;;;;;;;5.80;5.40;;;;;;;27.00;55.95;94876.81;5030887;28;20202;-83
2023/09/16 08:54:42;;;;;;;6.68;6.18;;;;;;;27.10;56.38;94875.84;5033421;28;20255;-84
2023/09/16 08:57:11;;;;;;;6.35;5.85;;;;;;;27.30;56.23;94891.25;5050116;28;20216;-83
2023/09/16 08:59:37;;;;;;;6.10;5.70;;;;;;;27.34;55.47;94857.81;5050784;28;20229;-83
2023/09/16 09:02:04;;;;;;;5.63;5.22;;;;;;;27.50;54.90;94816.75;5050561;28;20578;-83
2023/09/16 09:04:32;;;;;;;6.40;5.88;;;;;;;27.63;54.72;94796.59;5050850;28;20221;-83
2023/09/16 09:07:01;;;;;;;6.20;5.70;;;;;;;27.60;54.08;94780.56;5050040;28;20212;-83
2023/09/16 09:09:28;;;;;;;5.60;5.20;;;;;;;27.64;54.04;94787.59;5038707;28;20226;-83
2023/09/16 09:11:56;;;;;;;5.90;5.50;;;;;;;27.75;53.29;94745.78;5043277;28;20857;-83
2023/09/16 09:14:24;;;;;;;5.75;5.35;;;;;;;27.84;53.09;94712.97;5050130;28;20197;-83
2023/09/16 09:16:52;;;;;;;6.40;5.90;;;;;;;27.81;52.87;94703.00;5050251;28;20654;-83
2023/09/16 09:19:20;;;;;;;11.40;10.50;;;;;;;27.93;52.81;94738.69;5050274;28;20218;-83
2023/09/16 09:21:50;;;;;;;7.97;7.38;;;;;;;27.98;52.73;94738.56;5050128;28;20216;-84
2023/09/16 09:24:18;;;;;;;6.85;6.25;;;;;;;27.99;52.27;94719.72;5049643;28;20221;-83
2023/09/16 09:26:44;;;;;;;7.05;6.35;;;;;;;27.87;52.69;94719.53;5032384;28;20210;-83
2023/09/16 09:29:12;;;;;;;6.80;6.30;;;;;;;27.92;53.39;94745.84;5046242;28;20576;-84
2023/09/16 09:31:40;;;;;;;6.22;5.63;;;;;;;27.98;53.17;94765.00;5021765;28;20203;-82
2023/09/16 09:34:15;;;;;;;5.63;5.22;;;;;;;27.98;52.66;94712.09;5029734;28;20210;-83
2023/09/16 09:36:42;;;;;;;5.78;5.38;;;;;;;27.96;52.33;94707.09;5029423;28;20205;-83
2023/09/16 09:39:09;;;;;;;5.65;5.20;;;;;;;27.89;51.93;94664.44;5029773;28;20218;-83
2023/09/16 09:41:44;;;;;;;5.43;4.95;;;;;;;28.00;51.84;94691.38;5029957;28;20204;-83
2023/09/16 09:44:10;;;;;;;9.30;8.40;;;;;;;28.00;51.54;94672.88;5041756;28;20231;-84
2023/09/16 09:46:37;;;;;;;8.13;7.53;;;;;;;28.04;52.19;94673.81;5049643;28;20206;-84
2023/09/16 09:49:05;;;;;;;6.65;6.15;;;;;;;28.06;51.68;94667.13;5049649;28;20257;-84
2023/09/16 09:51:32;;;;;;;6.25;5.75;;;;;;;28.10;51.99;94689.22;5049214;28;20209;-83
2023/09/16 09:53:58;;;;;;;6.10;5.70;;;;;;;28.11;52.76;94724.41;5049154;28;20202;-84
2023/09/16 09:56:25;;;;;;;6.50;5.90;;;;;;;28.18;52.90;94720.22;5049986;28;20205;-83
2023/09/16 09:58:53;;;;;;;5.97;5.50;;;;;;;27.93;52.88;94715.66;5045570;28;20225;-83
2023/09/16 10:01:19;;;;;;;6.13;5.63;;;;;;;27.86;52.79;94720.63;5049543;28;20216;-83
2023/09/16 10:03:48;;;;;;;12.65;8.05;;;;;;;27.94;53.22;94756.13;5049350;28;20222;-83
2023/09/16 10:06:16;;;;;;;6.15;5.57;;;;;;;27.85;53.12;94721.72;5033397;28;20287;-83
2023/09/16 10:08:42;;;;;;;5.90;5.30;;;;;;;27.82;52.46;94706.44;5029374;28;20214;-83
2023/09/16 10:11:09;;;;;;;8.75;6.30;;;;;;;27.79;52.59;94697.25;5029894;28;20210;-83
2023/09/16 10:13:36;;;;;;;5.60;5.05;;;;;;;27.69;52.08;94673.72;5028823;28;20198;-83
2023/09/16 10:16:05;;;;;;;4.90;4.50;;;;;;;27.71;51.96;94665.47;5038380;28;20197;-83
2023/09/16 10:18:31;;;;;;;5.03;4.63;;;;;;;27.80;51.24;94629.25;5047684;28;20632;-83
2023/09/16 10:20:58;;;;;;;4.80;4.47;;;;;;;27.80;51.62;94635.31;5049704;28;20201;-84
2023/09/16 10:23:25;;;;;;;4.40;4.10;;;;;;;27.89;51.46;94648.56;5049396;28;20225;-83
2023/09/16 10:25:53;;;;;;;4.88;4.47;;;;;;;27.75;50.86;94601.06;5037167;28;20203;-83
2023/09/16 10:28:19;;;;;;;5.70;5.20;;;;;;;27.72;50.78;94577.06;5020885;28;20214;-82
2023/09/16 10:30:46;;;;;;;4.45;4.15;;;;;;;27.73;51.02;94584.72;5028443;28;20205;-83
2023/09/16 10:33:15;;;;;;;4.78;4.38;;;;;;;27.77;51.68;94629.84;5043468;28;20205;-83
2023/09/16 10:35:43;;;;;;;5.22;4.78;;;;;;;27.75;51.95;94637.31;5049088;28;20201;-83
2023/09/16 10:38:12;;;;;;;4.70;4.40;;;;;;;27.78;51.68;94623.47;5049762;28;20216;-83
2023/09/16 10:40:39;;;;;;;6.10;5.60;;;;;;;27.64;51.88;94638.69;5049466;28;20201;-84
2023/09/16 10:43:07;;;;;;;4.72;4.43;;;;;;;27.53;50.64;94580.75;5042529;28;20205;-82
2023/09/16 10:45:33;;;;;;;4.30;4.00;;;;;;;27.32;50.59;94592.22;5030415;28;20249;-83
2023/09/16 10:48:01;;;;;;;5.35;4.95;;;;;;;27.31;50.39;94575.56;5036738;28;20208;-83
2023/09/16 10:50:35;;;;;;;16.42;14.85;;;;;;;27.43;51.89;94657.72;5049688;28;20770;-83
2023/09/16 10:53:04;;;;;;;5.85;5.43;;;;;;;27.22;51.58;94621.53;5049312;28;20288;-83
2023/09/16 10:55:39;;;;;;;5.40;5.00;;;;;;;27.28;52.64;94673.22;5049222;28;20202;-83
2023/09/16 10:58:10;;;;;;;4.75;4.38;;;;;;;27.35;52.58;94700.75;5049358;28;20794;-83
2023/09/16 11:00:40;;;;;;;4.75;4.35;;;;;;;27.48;51.98;94662.88;5048376;28;20194;-84
2023/09/16 11:03:10;;;;;;;5.18;4.10;;;;;;;27.58;51.60;94664.50;5027513;28;20202;-83
2023/09/16 11:05:38;;;;;;;4.43;4.07;;;;;;;27.66;50.91;94629.38;5048913;28;20209;-84
2023/09/16 11:08:05;;;;;;;4.32;4.00;;;;;;;27.60;49.94;94539.88;5049934;28;20224;-83
2023/09/16 11:10:32;;;;;;;4.65;4.30;;;;;;;27.41;50.91;94580.56;5030006;28;20198;-84
2023/09/16 11:13:00;;;;;;;10.18;9.30;;;;;;;27.24;51.49;94608.81;5029046;28;20212;-83
2023/09/16 11:15:31;;;;;;;6.68;6.18;;;;;;;27.26;51.32;94615.34;5028661;28;20206;-83
2023/09/16 11:18:01;;;;;;;5.68;5.05;;;;;;;27.36;50.64;94591.28;5028033;28;20419;-84
2023/09/16 11:20:31;;;;;;;5.28;4.88;;;;;;;27.42;52.51;94687.09;5036317;28;20783;-84
2023/09/16 11:23:01;;;;;;;5.47;5.07;;;;;;;27.56;52.79;94698.38;5034680;28;20198;-82
2023/09/16 11:25:31;;;;;;;5.20;4.80;;;;;;;27.53;51.68;94646.06;5022671;28;20222;-83
2023/09/16 11:27:58;;;;;;;5.40;5.00;;;;;;;27.33;51.50;94612.25;5028002;28;20206;-82
2023/09/16 11:30:24;;;;;;;5.03;4.53;;;;;;;27.11;51.04;94590.13;5028443;28;20609;-83
2023/09/16 11:33:09;;;;;;;5.50;4.97;;;;;;;27.07;51.14;94602.38;5031326;28;20206;-83
2023/09/16 11:35:37;;;;;;;5.40;5.00;;;;;;;27.11;51.91;94640.31;5031048;28;20245;-83